sensor_id;sensor_type;location;lat;lon;timestamp;pressure;altitude;pressure_sealevel;temperature;humidity
39729;BME280;25402;42.004;23.088;2023-08-24T00:00:50;97403.03;;;17.85;42.99
39729;BME280;25402;42.004;23.088;2023-08-24T00:03:17;97474.84;;;18.22;43.03
39729;BME280;25402;42.004;23.088;2023-08-24T00:05:47;97461.03;;;18.17;43.43
39729;BME280;25402;42.004;23.088;2023-08-24T00:08:14;97451.13;;;18.04;43.75
39729;BME280;25402;42.004;23.088;2023-08-24T00:10:43;97448.63;;;18.02;43.61
39729;BME280;25402;42.004;23.088;2023-08-24T00:13:12;97469.09;;;18.12;43.78
39729;BME280;25402;42.004;23.088;2023-08-24T00:15:40;97451.59;;;18.01;43.62
39729;BME280;25402;42.004;23.088;2023-08-24T00:18:07;97458.84;;;17.95;43.66
39729;BME280;25402;42.004;23.088;2023-08-24T00:20:34;97468.72;;;17.96;44.40
39729;BME280;25402;42.004;23.088;2023-08-24T00:23:03;97472.06;;;17.98;44.30
39729;BME280;25402;42.004;23.088;2023-08-24T00:25:30;97482.91;;;17.93;44.27
39729;BME280;25402;42.004;23.088;2023-08-24T00:27:57;97470.28;;;17.92;44.06
39729;BME280;25402;42.004;23.088;2023-08-24T00:30:24;97471.69;;;17.83;44.06
39729;BME280;25402;42.004;23.088;2023-08-24T00:32:53;97477.63;;;17.80;44.45
39729;BME280;25402;42.004;23.088;2023-08-24T00:35:20;97475.56;;;17.76;44.58
39729;BME280;25402;42.004;23.088;2023-08-24T00:37:47;97471.13;;;17.63;44.74
39729;BME280;25402;42.004;23.088;2023-08-24T00:40:16;97458.38;;;17.57;45.10
39729;BME280;25402;42.004;23.088;2023-08-24T00:42:44;97474.34;;;17.60;45.18
39729;BME280;25402;42.004;23.088;2023-08-24T00:45:12;97468.25;;;17.58;45.20
39729;BME280;25402;42.004;23.088;2023-08-24T00:47:40;97471.19;;;17.45;45.41
39729;BME280;25402;42.004;23.088;2023-08-24T00:50:09;97475.09;;;17.49;45.43
39729;BME280;25402;42.004;23.088;2023-08-24T00:52:38;97479.38;;;17.45;45.52
39729;BME280;25402;42.004;23.088;2023-08-24T00:55:07;97471.28;;;17.38;45.23
39729;BME280;25402;42.004;23.088;2023-08-24T00:57:35;97465.56;;;17.40;45.25
39729;BME280;25402;42.004;23.088;2023-08-24T01:00:04;97465.66;;;17.33;45.26
39729;BME280;25402;42.004;23.088;2023-08-24T01:02:34;97456.88;;;17.31;45.07
39729;BME280;25402;42.004;23.088;2023-08-24T01:05:00;97465.66;;;17.33;45.08
39729;BME280;25402;42.004;23.088;2023-08-24T01:07:31;97460.91;;;17.28;44.96
39729;BME280;25402;42.004;23.088;2023-08-24T01:09:59;97461.97;;;17.27;45.04
39729;BME280;25402;42.004;23.088;2023-08-24T01:12:35;97463.63;;;17.28;45.08
39729;BME280;25402;42.004;23.088;2023-08-24T01:15:09;97474.34;;;17.30;44.81
39729;BME280;25402;42.004;23.088;2023-08-24T01:17:40;97474.19;;;17.25;45.02
39729;BME280;25402;42.004;23.088;2023-08-24T01:20:10;97467.97;;;17.18;45.54
39729;BME280;25402;42.004;23.088;2023-08-24T01:22:46;97466.28;;;17.17;45.72
39729;BME280;25402;42.004;23.088;2023-08-24T01:25:19;97463.00;;;17.08;45.78
39729;BME280;25402;42.004;23.088;2023-08-24T01:27:51;97463.09;;;17.01;46.00
39729;BME280;25402;42.004;23.088;2023-08-24T01:30:19;97469.50;;;16.95;45.93
39729;BME280;25402;42.004;23.088;2023-08-24T01:32:46;97467.44;;;16.91;46.16
39729;BME280;25402;42.004;23.088;2023-08-24T01:35:13;97460.69;;;16.93;46.27
39729;BME280;25402;42.004;23.088;2023-08-24T01:37:40;97466.16;;;16.93;45.85
39729;BME280;25402;42.004;23.088;2023-08-24T01:40:12;97453.31;;;16.94;46.28
39729;BME280;25402;42.004;23.088;2023-08-24T01:42:47;97451.50;;;16.88;46.16
39729;BME280;25402;42.004;23.088;2023-08-24T01:45:17;97452.88;;;16.79;46.13
39729;BME280;25402;42.004;23.088;2023-08-24T01:47:45;97448.84;;;16.81;46.23
39729;BME280;25402;42.004;23.088;2023-08-24T01:50:14;97456.44;;;16.79;46.28
39729;BME280;25402;42.004;23.088;2023-08-24T01:52:41;97461.69;;;16.81;46.52
39729;BME280;25402;42.004;23.088;2023-08-24T01:55:09;97461.28;;;16.77;46.22
39729;BME280;25402;42.004;23.088;2023-08-24T01:57:36;97461.28;;;16.77;46.17
39729;BME280;25402;42.004;23.088;2023-08-24T02:00:04;97454.16;;;16.76;46.40
39729;BME280;25402;42.004;23.088;2023-08-24T02:02:35;97449.53;;;16.77;46.20
39729;BME280;25402;42.004;23.088;2023-08-24T02:05:02;97444.75;;;16.72;46.59
39729;BME280;25402;42.004;23.088;2023-08-24T02:07:29;97443.78;;;16.66;46.27
39729;BME280;25402;42.004;23.088;2023-08-24T02:09:56;97448.41;;;16.66;46.63
39729;BME280;25402;42.004;23.088;2023-08-24T02:12:23;97450.13;;;16.60;46.45
39729;BME280;25402;42.004;23.088;2023-08-24T02:14:50;97436.78;;;16.52;46.47
39729;BME280;25402;42.004;23.088;2023-08-24T02:17:17;97461.28;;;16.59;46.13
39729;BME280;25402;42.004;23.088;2023-08-24T02:19:46;97464.00;;;16.59;46.53
39729;BME280;25402;42.004;23.088;2023-08-24T02:22:13;97468.03;;;16.56;46.63
39729;BME280;25402;42.004;23.088;2023-08-24T02:24:40;97467.41;;;16.54;46.64
39729;BME280;25402;42.004;23.088;2023-08-24T02:27:07;97472.28;;;16.52;46.33
39729;BME280;25402;42.004;23.088;2023-08-24T02:29:34;97470.63;;;16.51;46.82
39729;BME280;25402;42.004;23.088;2023-08-24T02:32:02;97474.84;;;16.47;46.74
39729;BME280;25402;42.004;23.088;2023-08-24T02:34:29;97439.91;;;16.31;46.46
39729;BME280;25402;42.004;23.088;2023-08-24T02:36:58;97473.59;;;16.43;46.60
39729;BME280;25402;42.004;23.088;2023-08-24T02:39:25;97473.22;;;16.40;47.11
39729;BME280;25402;42.004;23.088;2023-08-24T02:41:52;97483.50;;;16.44;47.17
39729;BME280;25402;42.004;23.088;2023-08-24T02:44:19;97486.41;;;16.43;47.12
39729;BME280;25402;42.004;23.088;2023-08-24T02:46:48;97471.53;;;16.39;47.15
39729;BME280;25402;42.004;23.088;2023-08-24T02:49:15;97485.78;;;16.47;46.82
39729;BME280;25402;42.004;23.088;2023-08-24T02:51:42;97493.31;;;16.52;47.20
39729;BME280;25402;42.004;23.088;2023-08-24T02:54:10;97471.53;;;16.39;47.11
39729;BME280;25402;42.004;23.088;2023-08-24T02:56:37;97505.50;;;16.49;47.28
39729;BME280;25402;42.004;23.088;2023-08-24T02:59:04;97498.19;;;16.43;47.39
39729;BME280;25402;42.004;23.088;2023-08-24T03:01:31;97491.69;;;16.44;47.09
39729;BME280;25402;42.004;23.088;2023-08-24T03:03:58;97499.03;;;16.44;47.01
39729;BME280;25402;42.004;23.088;2023-08-24T03:06:25;97495.44;;;16.43;46.68
39729;BME280;25402;42.004;23.088;2023-08-24T03:08:52;97496.31;;;16.37;46.85
39729;BME280;25402;42.004;23.088;2023-08-24T03:11:21;97470.44;;;16.21;46.65
39729;BME280;25402;42.004;23.088;2023-08-24T03:13:48;97495.13;;;16.33;46.94
39729;BME280;25402;42.004;23.088;2023-08-24T03:16:15;97505.44;;;16.31;46.98
39729;BME280;25402;42.004;23.088;2023-08-24T03:18:42;97504.19;;;16.27;46.98
39729;BME280;25402;42.004;23.088;2023-08-24T03:21:09;97495.31;;;16.13;46.85
39729;BME280;25402;42.004;23.088;2023-08-24T03:23:36;97505.91;;;16.21;47.12
39729;BME280;25402;42.004;23.088;2023-08-24T03:26:03;97513.53;;;16.19;47.06
39729;BME280;25402;42.004;23.088;2023-08-24T03:28:31;97522.28;;;16.21;46.68
39729;BME280;25402;42.004;23.088;2023-08-24T03:30:58;97521.25;;;16.22;46.82
39729;BME280;25402;42.004;23.088;2023-08-24T03:33:25;97513.31;;;16.21;46.98
39729;BME280;25402;42.004;23.088;2023-08-24T03:35:53;97518.75;;;16.21;46.72
39729;BME280;25402;42.004;23.088;2023-08-24T03:38:20;97519.63;;;16.15;46.81
39729;BME280;25402;42.004;23.088;2023-08-24T03:40:47;97501.50;;;16.02;46.78
39729;BME280;25402;42.004;23.088;2023-08-24T03:43:14;97532.22;;;16.16;47.11
39729;BME280;25402;42.004;23.088;2023-08-24T03:45:43;97504.88;;;15.97;47.24
39729;BME280;25402;42.004;23.088;2023-08-24T03:48:10;97533.28;;;16.15;47.19
39729;BME280;25402;42.004;23.088;2023-08-24T03:50:37;97534.97;;;16.16;47.28
39729;BME280;25402;42.004;23.088;2023-08-24T03:53:04;97537.88;;;16.21;46.98
39729;BME280;25402;42.004;23.088;2023-08-24T03:55:31;97538.22;;;16.24;46.95
39729;BME280;25402;42.004;23.088;2023-08-24T03:57:59;97542.41;;;16.27;47.27
39729;BME280;25402;42.004;23.088;2023-08-24T04:00:26;97554.66;;;16.49;47.29
39729;BME280;25402;42.004;23.088;2023-08-24T04:02:55;97547.88;;;16.77;46.34
39729;BME280;25402;42.004;23.088;2023-08-24T04:05:22;97554.31;;;17.00;45.96
39729;BME280;25402;42.004;23.088;2023-08-24T04:07:48;97560.06;;;17.17;46.03
39729;BME280;25402;42.004;23.088;2023-08-24T04:10:15;97561.56;;;17.31;46.75
39729;BME280;25402;42.004;23.088;2023-08-24T04:12:42;97560.72;;;17.49;47.94
39729;BME280;25402;42.004;23.088;2023-08-24T04:15:09;97553.19;;;17.63;47.36
39729;BME280;25402;42.004;23.088;2023-08-24T04:17:37;97551.66;;;17.97;46.84
39729;BME280;25402;42.004;23.088;2023-08-24T04:20:06;97561.31;;;18.41;45.36
39729;BME280;25402;42.004;23.088;2023-08-24T04:22:34;97564.22;;;18.69;43.74
39729;BME280;25402;42.004;23.088;2023-08-24T04:25:01;97563.84;;;19.01;42.71
39729;BME280;25402;42.004;23.088;2023-08-24T04:27:28;97564.69;;;19.13;41.64
39729;BME280;25402;42.004;23.088;2023-08-24T04:29:55;97561.94;;;19.13;41.34
39729;BME280;25402;42.004;23.088;2023-08-24T04:32:22;97578.53;;;19.18;41.18
39729;BME280;25402;42.004;23.088;2023-08-24T04:34:49;97571.59;;;19.27;41.24
39729;BME280;25402;42.004;23.088;2023-08-24T04:37:17;97574.97;;;19.58;40.65
39729;BME280;25402;42.004;23.088;2023-08-24T04:39:45;97574.03;;;19.92;40.18
39729;BME280;25402;42.004;23.088;2023-08-24T04:42:12;97569.19;;;20.28;39.61
39729;BME280;25402;42.004;23.088;2023-08-24T04:44:40;97575.97;;;20.70;38.28
39729;BME280;25402;42.004;23.088;2023-08-24T04:47:07;97580.38;;;21.05;37.66
39729;BME280;25402;42.004;23.088;2023-08-24T04:49:36;97582.59;;;21.46;36.98
39729;BME280;25402;42.004;23.088;2023-08-24T04:52:03;97583.91;;;21.82;36.17
39729;BME280;25402;42.004;23.088;2023-08-24T04:54:32;97584.94;;;22.25;35.51
39729;BME280;25402;42.004;23.088;2023-08-24T04:56:59;97575.13;;;22.66;34.85
39729;BME280;25402;42.004;23.088;2023-08-24T04:59:27;97575.38;;;23.02;34.25
39729;BME280;25402;42.004;23.088;2023-08-24T05:01:54;97585.59;;;23.43;33.50
39729;BME280;25402;42.004;23.088;2023-08-24T05:04:21;97579.13;;;23.75;33.17
39729;BME280;25402;42.004;23.088;2023-08-24T05:06:48;97585.03;;;24.14;32.36
39729;BME280;25402;42.004;23.088;2023-08-24T05:09:15;97580.72;;;24.53;31.68
39729;BME280;25402;42.004;23.088;2023-08-24T05:11:44;97582.66;;;24.88;31.30
39729;BME280;25402;42.004;23.088;2023-08-24T05:14:10;97592.88;;;25.28;30.58
39729;BME280;25402;42.004;23.088;2023-08-24T05:16:39;97588.88;;;25.60;30.37
39729;BME280;25402;42.004;23.088;2023-08-24T05:19:06;97594.03;;;25.97;29.89
39729;BME280;25402;42.004;23.088;2023-08-24T05:21:33;97581.09;;;26.26;29.07
39729;BME280;25402;42.004;23.088;2023-08-24T05:24:00;97580.91;;;26.57;28.62
39729;BME280;25402;42.004;23.088;2023-08-24T05:26:27;97575.44;;;26.81;28.48
39729;BME280;25402;42.004;23.088;2023-08-24T05:28:55;97579.03;;;27.10;27.51
39729;BME280;25402;42.004;23.088;2023-08-24T05:31:22;97598.72;;;27.43;27.12
39729;BME280;25402;42.004;23.088;2023-08-24T05:33:49;97585.13;;;27.41;27.26
39729;BME280;25402;42.004;23.088;2023-08-24T05:36:16;97585.25;;;27.55;26.87
39729;BME280;25402;42.004;23.088;2023-08-24T05:38:43;97581.53;;;27.64;27.32
39729;BME280;25402;42.004;23.088;2023-08-24T05:41:15;97592.56;;;27.75;27.17
39729;BME280;25402;42.004;23.088;2023-08-24T05:43:42;97580.03;;;27.72;26.79
39729;BME280;25402;42.004;23.088;2023-08-24T05:46:10;97584.16;;;27.80;26.94
39729;BME280;25402;42.004;23.088;2023-08-24T05:48:37;97583.91;;;27.76;27.30
39729;BME280;25402;42.004;23.088;2023-08-24T05:51:04;97592.00;;;27.49;27.27
39729;BME280;25402;42.004;23.088;2023-08-24T05:53:34;97584.53;;;27.44;27.07
39729;BME280;25402;42.004;23.088;2023-08-24T05:56:01;97591.75;;;27.45;27.10
39729;BME280;25402;42.004;23.088;2023-08-24T05:58:29;97597.31;;;27.45;27.32
39729;BME280;25402;42.004;23.088;2023-08-24T06:00:57;97586.69;;;27.52;27.50
39729;BME280;25402;42.004;23.088;2023-08-24T06:03:26;97598.16;;;27.69;26.77
39729;BME280;25402;42.004;23.088;2023-08-24T06:05:53;97595.31;;;27.75;26.80
39729;BME280;25402;42.004;23.088;2023-08-24T06:08:21;97600.25;;;27.83;26.98
39729;BME280;25402;42.004;23.088;2023-08-24T06:10:48;97596.66;;;28.01;25.89
39729;BME280;25402;42.004;23.088;2023-08-24T06:13:15;97588.84;;;28.03;26.34
39729;BME280;25402;42.004;23.088;2023-08-24T06:15:42;97583.91;;;28.00;26.68
39729;BME280;25402;42.004;23.088;2023-08-24T06:18:09;97589.59;;;28.09;26.12
39729;BME280;25402;42.004;23.088;2023-08-24T06:20:37;97585.69;;;28.10;26.27
39729;BME280;25402;42.004;23.088;2023-08-24T06:23:04;97587.50;;;28.19;26.15
39729;BME280;25402;42.004;23.088;2023-08-24T06:25:33;97593.25;;;28.28;26.19
39729;BME280;25402;42.004;23.088;2023-08-24T06:28:00;97587.91;;;28.31;26.48
39729;BME280;25402;42.004;23.088;2023-08-24T06:30:29;97585.22;;;28.26;25.66
39729;BME280;25402;42.004;23.088;2023-08-24T06:32:58;97585.03;;;28.36;26.19
39729;BME280;25402;42.004;23.088;2023-08-24T06:35:25;97588.00;;;28.45;25.45
39729;BME280;25402;42.004;23.088;2023-08-24T06:37:53;97571.06;;;28.42;25.87
39729;BME280;25402;42.004;23.088;2023-08-24T06:40:20;97581.00;;;28.48;25.64
39729;BME280;25402;42.004;23.088;2023-08-24T06:42:48;97573.97;;;28.50;25.83
39729;BME280;25402;42.004;23.088;2023-08-24T06:45:15;97566.97;;;28.53;25.35
39729;BME280;25402;42.004;23.088;2023-08-24T06:47:44;97561.06;;;28.41;25.33
39729;BME280;25402;42.004;23.088;2023-08-24T06:50:11;97562.66;;;28.47;25.72
39729;BME280;25402;42.004;23.088;2023-08-24T06:52:38;97569.38;;;28.59;25.54
39729;BME280;25402;42.004;23.088;2023-08-24T06:55:08;97568.09;;;28.52;25.71
39729;BME280;25402;42.004;23.088;2023-08-24T06:57:36;97558.09;;;28.51;25.45
39729;BME280;25402;42.004;23.088;2023-08-24T07:00:03;97558.09;;;28.51;25.52
39729;BME280;25402;42.004;23.088;2023-08-24T07:02:34;97562.25;;;28.53;25.49
39729;BME280;25402;42.004;23.088;2023-08-24T07:05:02;97554.94;;;28.57;25.19
39729;BME280;25402;42.004;23.088;2023-08-24T07:07:31;97556.97;;;28.52;25.40
39729;BME280;25402;42.004;23.088;2023-08-24T07:09:58;97555.19;;;28.61;25.25
39729;BME280;25402;42.004;23.088;2023-08-24T07:12:27;97560.44;;;28.62;25.48
39729;BME280;25402;42.004;23.088;2023-08-24T07:14:55;97552.78;;;28.73;25.40
39729;BME280;25402;42.004;23.088;2023-08-24T07:17:22;97554.03;;;28.62;24.99
39729;BME280;25402;42.004;23.088;2023-08-24T07:19:49;97544.72;;;28.53;25.35
39729;BME280;25402;42.004;23.088;2023-08-24T07:22:16;97548.56;;;28.57;25.20
39729;BME280;25402;42.004;23.088;2023-08-24T07:24:43;97534.34;;;28.58;25.51
39729;BME280;25402;42.004;23.088;2023-08-24T07:27:10;97532.13;;;28.42;25.61
39729;BME280;25402;42.004;23.088;2023-08-24T07:29:39;97528.44;;;28.46;25.67
39729;BME280;25402;42.004;23.088;2023-08-24T07:32:06;97515.03;;;28.48;25.90
39729;BME280;25402;42.004;23.088;2023-08-24T07:34:32;97514.91;;;28.39;25.85
39729;BME280;25402;42.004;23.088;2023-08-24T07:37:00;97528.63;;;28.50;25.95
39729;BME280;25402;42.004;23.088;2023-08-24T07:39:27;97522.31;;;28.63;25.45
39729;BME280;25402;42.004;23.088;2023-08-24T07:41:54;97520.84;;;28.65;25.14
39729;BME280;25402;42.004;23.088;2023-08-24T07:44:21;97517.50;;;28.50;25.12
39729;BME280;25402;42.004;23.088;2023-08-24T07:46:49;97514.03;;;28.58;25.56
39729;BME280;25402;42.004;23.088;2023-08-24T07:49:16;97495.25;;;28.50;25.14
39729;BME280;25402;42.004;23.088;2023-08-24T07:51:43;97511.84;;;28.55;25.12
39729;BME280;25402;42.004;23.088;2023-08-24T07:54:10;97514.34;;;28.56;25.39
39729;BME280;25402;42.004;23.088;2023-08-24T07:56:37;97479.34;;;28.36;25.48
39729;BME280;25402;42.004;23.088;2023-08-24T07:59:03;97506.06;;;28.70;25.19
39729;BME280;25402;42.004;23.088;2023-08-24T08:01:32;97500.94;;;28.77;25.23
39729;BME280;25402;42.004;23.088;2023-08-24T08:04:00;97502.06;;;28.76;25.02
39729;BME280;25402;42.004;23.088;2023-08-24T08:06:27;97499.59;;;28.75;25.52
39729;BME280;25402;42.004;23.088;2023-08-24T08:08:54;97495.78;;;28.84;25.02
39729;BME280;25402;42.004;23.088;2023-08-24T08:11:24;97496.13;;;28.96;25.17
39729;BME280;25402;42.004;23.088;2023-08-24T08:13:51;97489.72;;;28.96;25.05
39729;BME280;25402;42.004;23.088;2023-08-24T08:16:18;97488.69;;;29.05;24.92
39729;BME280;25402;42.004;23.088;2023-08-24T08:18:45;97479.13;;;29.12;24.85
39729;BME280;25402;42.004;23.088;2023-08-24T08:21:15;97480.38;;;29.33;24.87
39729;BME280;25402;42.004;23.088;2023-08-24T08:23:43;97482.97;;;29.43;25.04
39729;BME280;25402;42.004;23.088;2023-08-24T08:26:10;97476.63;;;29.51;24.87
39729;BME280;25402;42.004;23.088;2023-08-24T08:28:37;97486.75;;;29.61;24.33
39729;BME280;25402;42.004;23.088;2023-08-24T08:31:04;97484.78;;;29.61;24.51
39729;BME280;25402;42.004;23.088;2023-08-24T08:33:31;97486.22;;;29.45;24.62
39729;BME280;25402;42.004;23.088;2023-08-24T08:35:58;97482.63;;;29.31;24.88
39729;BME280;25402;42.004;23.088;2023-08-24T08:38:27;97478.25;;;28.97;25.33
39729;BME280;25402;42.004;23.088;2023-08-24T08:40:56;97462.94;;;28.67;25.81
39729;BME280;25402;42.004;23.088;2023-08-24T08:43:24;97451.75;;;28.40;25.96
39729;BME280;25402;42.004;23.088;2023-08-24T08:45:52;97470.47;;;28.34;26.24
39729;BME280;25402;42.004;23.088;2023-08-24T08:48:22;97453.50;;;28.17;26.41
39729;BME280;25402;42.004;23.088;2023-08-24T08:50:50;97465.28;;;28.09;26.66
39729;BME280;25402;42.004;23.088;2023-08-24T08:53:22;97441.94;;;28.10;27.40
39729;BME280;25402;42.004;23.088;2023-08-24T08:55:54;97447.00;;;28.41;26.82
39729;BME280;25402;42.004;23.088;2023-08-24T08:58:23;97450.97;;;28.67;26.51
39729;BME280;25402;42.004;23.088;2023-08-24T09:00:51;97427.81;;;28.85;26.51
39729;BME280;25402;42.004;23.088;2023-08-24T09:03:20;97443.25;;;29.24;26.07
39729;BME280;25402;42.004;23.088;2023-08-24T09:05:47;97442.63;;;29.27;25.49
39729;BME280;25402;42.004;23.088;2023-08-24T09:08:16;97444.25;;;29.14;25.74
39729;BME280;25402;42.004;23.088;2023-08-24T09:10:43;97432.56;;;28.98;26.04
39729;BME280;25402;42.004;23.088;2023-08-24T09:13:11;97429.47;;;28.86;26.70
39729;BME280;25402;42.004;23.088;2023-08-24T09:15:38;97427.22;;;29.02;26.37
39729;BME280;25402;42.004;23.088;2023-08-24T09:18:06;97428.88;;;29.17;26.22
39729;BME280;25402;42.004;23.088;2023-08-24T09:20:34;97426.56;;;29.46;26.01
39729;BME280;25402;42.004;23.088;2023-08-24T09:23:03;97415.91;;;29.75;25.95
39729;BME280;25402;42.004;23.088;2023-08-24T09:25:32;97420.97;;;30.09;25.20
39729;BME280;25402;42.004;23.088;2023-08-24T09:28:01;97410.50;;;30.37;25.15
39729;BME280;25402;42.004;23.088;2023-08-24T09:30:31;97417.28;;;30.76;24.84
39729;BME280;25402;42.004;23.088;2023-08-24T09:33:02;97411.25;;;31.13;24.16
39729;BME280;25402;42.004;23.088;2023-08-24T09:35:34;97412.81;;;31.45;24.01
39729;BME280;25402;42.004;23.088;2023-08-24T09:38:15;97410.91;;;31.80;23.42
39729;BME280;25402;42.004;23.088;2023-08-24T09:40:44;97392.81;;;31.95;22.81
39729;BME280;25402;42.004;23.088;2023-08-24T09:43:14;97389.69;;;32.23;22.61
39729;BME280;25402;42.004;23.088;2023-08-24T09:45:49;97403.41;;;32.71;22.28
39729;BME280;25402;42.004;23.088;2023-08-24T09:48:17;97383.47;;;32.72;21.57
39729;BME280;25402;42.004;23.088;2023-08-24T09:50:45;97401.13;;;33.11;21.72
39729;BME280;25402;42.004;23.088;2023-08-24T09:53:21;97396.53;;;33.36;20.96
39729;BME280;25402;42.004;23.088;2023-08-24T09:55:54;97388.84;;;33.24;20.68
39729;BME280;25402;42.004;23.088;2023-08-24T09:58:22;97389.22;;;33.14;20.77
39729;BME280;25402;42.004;23.088;2023-08-24T10:00:52;97385.69;;;33.26;20.66
39729;BME280;25402;42.004;23.088;2023-08-24T10:03:20;97379.16;;;33.42;20.28
39729;BME280;25402;42.004;23.088;2023-08-24T10:05:50;97369.09;;;33.50;20.51
39729;BME280;25402;42.004;23.088;2023-08-24T10:08:21;97370.16;;;33.58;20.29
39729;BME280;25402;42.004;23.088;2023-08-24T10:10:53;97366.41;;;33.74;20.58
39729;BME280;25402;42.004;23.088;2023-08-24T10:13:29;97367.63;;;33.85;19.96
39729;BME280;25402;42.004;23.088;2023-08-24T10:16:01;97368.81;;;33.84;19.86
39729;BME280;25402;42.004;23.088;2023-08-24T10:18:30;97375.50;;;33.71;19.81
39729;BME280;25402;42.004;23.088;2023-08-24T10:20:58;97375.78;;;33.78;19.76
39729;BME280;25402;42.004;23.088;2023-08-24T10:23:27;97369.16;;;33.83;19.81
39729;BME280;25402;42.004;23.088;2023-08-24T10:25:56;97360.59;;;34.00;19.82
39729;BME280;25402;42.004;23.088;2023-08-24T10:30:52;97351.50;;;34.36;19.87
39729;BME280;25402;42.004;23.088;2023-08-24T10:33:26;97348.47;;;33.87;19.65
39729;BME280;25402;42.004;23.088;2023-08-24T10:35:54;97362.31;;;33.51;19.65
39729;BME280;25402;42.004;23.088;2023-08-24T10:38:25;97363.88;;;33.02;19.98
39729;BME280;25402;42.004;23.088;2023-08-24T10:40:53;97362.03;;;32.76;19.94
39729;BME280;25402;42.004;23.088;2023-08-24T10:43:22;97355.72;;;32.41;20.86
39729;BME280;25402;42.004;23.088;2023-08-24T10:45:58;97357.56;;;32.20;20.70
39729;BME280;25402;42.004;23.088;2023-08-24T10:48:28;97360.72;;;31.93;21.19
39729;BME280;25402;42.004;23.088;2023-08-24T10:51:17;97354.28;;;31.75;21.12
39729;BME280;25402;42.004;23.088;2023-08-24T10:53:46;97354.94;;;31.55;21.81
39729;BME280;25402;42.004;23.088;2023-08-24T10:56:16;97355.09;;;31.41;22.02
39729;BME280;25402;42.004;23.088;2023-08-24T10:58:44;97352.94;;;31.29;22.29
39729;BME280;25402;42.004;23.088;2023-08-24T11:01:15;97348.78;;;31.09;22.54
39729;BME280;25402;42.004;23.088;2023-08-24T11:03:49;97343.13;;;30.92;22.75
39729;BME280;25402;42.004;23.088;2023-08-24T11:06:20;97342.88;;;30.71;22.94
39729;BME280;25402;42.004;23.088;2023-08-24T11:08:48;97331.06;;;30.43;23.10
39729;BME280;25402;42.004;23.088;2023-08-24T11:11:19;97328.00;;;30.23;23.45
39729;BME280;25402;42.004;23.088;2023-08-24T11:14:14;97343.38;;;29.89;23.48
39729;BME280;25402;42.004;23.088;2023-08-24T11:16:44;97333.59;;;28.79;24.11
39729;BME280;25402;42.004;23.088;2023-08-24T11:19:13;97321.19;;;27.97;25.24
39729;BME280;25402;42.004;23.088;2023-08-24T11:21:42;97329.06;;;27.77;25.34
39729;BME280;25402;42.004;23.088;2023-08-24T11:24:10;97329.75;;;27.31;25.36
39729;BME280;25402;42.004;23.088;2023-08-24T11:26:42;97322.50;;;27.11;25.54
39729;BME280;25402;42.004;23.088;2023-08-24T11:29:10;97326.72;;;26.61;24.76
39729;BME280;25402;42.004;23.088;2023-08-24T11:31:37;97330.47;;;26.27;24.71
39729;BME280;25402;42.004;23.088;2023-08-24T11:34:05;97323.91;;;26.13;25.02
39729;BME280;25402;42.004;23.088;2023-08-24T11:36:43;97321.03;;;26.23;24.61
39729;BME280;25402;42.004;23.088;2023-08-24T11:39:15;97306.44;;;26.42;24.43
39729;BME280;25402;42.004;23.088;2023-08-24T11:41:45;97318.53;;;26.51;24.25
39729;BME280;25402;42.004;23.088;2023-08-24T11:44:14;97308.47;;;26.60;24.25
39729;BME280;25402;42.004;23.088;2023-08-24T11:46:41;97304.31;;;26.57;24.49
39729;BME280;25402;42.004;23.088;2023-08-24T11:49:08;97296.84;;;26.58;24.95
39729;BME280;25402;42.004;23.088;2023-08-24T11:51:36;97292.03;;;26.87;24.45
39729;BME280;25402;42.004;23.088;2023-08-24T11:54:06;97300.13;;;26.84;24.86
39729;BME280;25402;42.004;23.088;2023-08-24T11:56:41;97299.97;;;26.94;24.71
39729;BME280;25402;42.004;23.088;2023-08-24T11:59:12;97285.97;;;27.04;24.94
39729;BME280;25402;42.004;23.088;2023-08-24T12:01:39;97294.06;;;27.19;24.79
39729;BME280;25402;42.004;23.088;2023-08-24T12:04:07;97282.81;;;27.48;24.79
39729;BME280;25402;42.004;23.088;2023-08-24T12:06:35;97297.47;;;27.35;25.86
39729;BME280;25402;42.004;23.088;2023-08-24T12:09:06;97302.56;;;27.47;25.55
39729;BME280;25402;42.004;23.088;2023-08-24T12:11:35;97295.34;;;27.46;25.93
39729;BME280;25402;42.004;23.088;2023-08-24T12:14:03;97294.28;;;27.60;25.66
39729;BME280;25402;42.004;23.088;2023-08-24T12:16:32;97289.19;;;27.67;25.72
39729;BME280;25402;42.004;23.088;2023-08-24T12:19:00;97280.94;;;27.95;24.88
39729;BME280;25402;42.004;23.088;2023-08-24T12:21:29;97282.81;;;28.13;25.51
39729;BME280;25402;42.004;23.088;2023-08-24T12:23:57;97274.31;;;28.23;25.37
39729;BME280;25402;42.004;23.088;2023-08-24T12:26:25;97277.41;;;28.49;25.06
39729;BME280;25402;42.004;23.088;2023-08-24T12:28:53;97271.34;;;28.47;25.20
39729;BME280;25402;42.004;23.088;2023-08-24T12:31:20;97269.59;;;28.65;25.05
39729;BME280;25402;42.004;23.088;2023-08-24T12:33:59;97257.94;;;29.13;24.24
39729;BME280;25402;42.004;23.088;2023-08-24T12:36:26;97255.41;;;29.38;24.03
39729;BME280;25402;42.004;23.088;2023-08-24T12:38:55;97245.41;;;29.82;23.49
39729;BME280;25402;42.004;23.088;2023-08-24T12:41:22;97233.31;;;30.18;22.84
39729;BME280;25402;42.004;23.088;2023-08-24T12:43:51;97222.56;;;30.33;22.40
39729;BME280;25402;42.004;23.088;2023-08-24T12:46:18;97236.38;;;30.95;21.52
39729;BME280;25402;42.004;23.088;2023-08-24T12:48:45;97208.75;;;31.02;20.88
39729;BME280;25402;42.004;23.088;2023-08-24T12:51:12;97243.28;;;31.24;20.89
39729;BME280;25402;42.004;23.088;2023-08-24T12:53:39;97234.56;;;31.60;20.42
39729;BME280;25402;42.004;23.088;2023-08-24T12:56:06;97226.97;;;31.69;20.45
39729;BME280;25402;42.004;23.088;2023-08-24T12:58:33;97233.03;;;31.97;20.11